Time;durP1;ratioP1;P1;durP2;ratioP2;P2;SDS_P1;SDS_P2;PMS_P1;PMS_P2;Temp;Humidity;BMP_temperature;BMP_pressure;BME280_temperature;BME280_humidity;BME280_pressure;Samples;Min_cycle;Max_cycle;Signal;HPM_P1;HPM_P2
2023/04/26 00:05:36;;;;;;;10.90;5.10;;;;;;;6.08;64.08;98041.98;435383;1253;96122;-40
2023/04/26 00:15:41;;;;;;;15.30;4.70;;;;;;;5.88;63.99;98046.73;435281;1256;108243;-41
2023/04/26 00:25:45;;;;;;;14.20;5.50;;;;;;;5.69;64.00;98050.04;435776;1254;96126;-41
2023/04/26 00:35:49;;;;;;;13.10;4.80;;;;;;;5.45;64.20;98061.36;438822;1257;95529;-41
2023/04/26 00:45:54;;;;;;;17.30;5.50;;;;;;;5.23;64.27;98063.66;435346;1256;96915;-40
2023/04/26 00:55:57;;;;;;;13.30;4.90;;;;;;;5.06;64.57;98065.39;438136;1251;106456;-41
2023/04/26 01:06:01;;;;;;;9.00;4.80;;;;;;;5.00;64.89;98067.42;435313;1257;96113;-41
2023/04/26 01:16:08;;;;;;;15.60;6.20;;;;;;;4.94;65.39;98069.10;435258;1257;108548;-40
2023/04/26 01:36:19;;;;;;;16.70;8.80;;;;;;;4.57;66.33;98074.32;437279;1255;106639;-41
2023/04/26 01:46:23;;;;;;;17.60;6.40;;;;;;;4.40;66.46;98073.58;437638;1257;96141;-40
2023/04/26 01:56:29;;;;;;;14.90;5.80;;;;;;;4.12;66.72;98078.23;437407;1257;109432;-41
2023/04/26 02:06:37;;;;;;;8.80;4.10;;;;;;;4.00;66.80;98082.64;435299;1257;108455;-40
2023/04/26 02:16:41;;;;;;;13.50;5.00;;;;;;;3.92;67.02;98084.30;435297;1264;96110;-39
2023/04/26 02:26:45;;;;;;;14.20;6.10;;;;;;;3.87;67.26;98083.73;435173;1264;108960;-40
2023/04/26 02:36:48;;;;;;;11.60;5.30;;;;;;;3.70;67.53;98082.59;435218;1257;95984;-40
2023/04/26 02:46:56;;;;;;;16.20;6.20;;;;;;;3.59;67.57;98088.44;435314;1256;95451;-41
2023/04/26 02:57:04;;;;;;;15.10;6.50;;;;;;;3.53;67.89;98089.98;438583;1257;96127;-41
2023/04/26 03:07:08;;;;;;;11.00;4.60;;;;;;;3.47;67.81;98090.21;435279;1257;108229;-41
2023/04/26 03:17:11;;;;;;;8.10;3.60;;;;;;;3.38;67.91;98089.80;435350;1257;95646;-40
2023/04/26 03:27:19;;;;;;;29.10;5.20;;;;;;;3.37;68.14;98095.38;435300;1256;117299;-41
2023/04/26 03:37:23;;;;;;;14.80;5.80;;;;;;;3.29;68.47;98100.81;435300;1257;108340;-40
2023/04/26 03:47:27;;;;;;;20.70;9.70;;;;;;;3.24;68.60;98110.40;435347;1257;95314;-40
2023/04/26 03:57:30;;;;;;;15.00;6.80;;;;;;;3.20;68.65;98123.98;437426;1257;96017;-40
2023/04/26 04:07:38;;;;;;;14.80;6.40;;;;;;;3.35;68.80;98132.00;435383;1258;95232;-39
2023/04/26 04:17:41;;;;;;;13.80;8.20;;;;;;;4.02;68.73;98138.83;437163;1257;108250;-43
2023/04/26 04:27:46;;;;;;;22.90;6.70;;;;;;;5.05;68.74;98151.07;437043;1257;98289;-40
2023/04/26 04:37:50;;;;;;;20.70;5.70;;;;;;;6.34;68.37;98154.20;435426;1255;95610;-40
2023/04/26 04:47:55;;;;;;;12.20;5.90;;;;;;;7.20;67.41;98158.25;435303;1251;108475;-40
2023/04/26 04:58:03;;;;;;;9.30;5.00;;;;;;;7.75;66.56;98161.04;435346;1257;96198;-41
2023/04/26 05:08:11;;;;;;;9.00;4.40;;;;;;;8.66;65.55;98174.01;435305;1256;95621;-41
2023/04/26 05:18:15;;;;;;;9.70;3.80;;;;;;;9.30;63.11;98187.63;434892;1256;561677;-41
2023/04/26 05:28:20;;;;;;;8.60;2.90;;;;;;;9.62;60.52;98196.64;435268;1251;107224;-41
2023/04/26 05:38:24;;;;;;;8.10;3.20;;;;;;;9.26;58.36;98202.05;435336;1256;96120;-40
2023/04/26 05:48:32;;;;;;;10.90;3.40;;;;;;;9.75;58.14;98204.88;435284;1257;96505;-40
2023/04/26 05:58:36;;;;;;;14.60;4.30;;;;;;;10.46;57.54;98207.75;435262;1256;109386;-40
2023/04/26 06:08:40;;;;;;;10.00;4.10;;;;;;;10.79;56.25;98204.39;435305;1255;95759;-40
2023/04/26 06:18:48;;;;;;;6.20;2.70;;;;;;;11.01;54.27;98205.67;435406;1251;109542;-41
2023/04/26 06:28:55;;;;;;;7.50;2.70;;;;;;;10.96;53.58;98212.60;435367;1256;108536;-39
2023/04/26 06:38:59;;;;;;;7.10;3.10;;;;;;;10.95;53.06;98217.84;435307;1257;96897;-40
2023/04/26 06:49:03;;;;;;;11.60;3.70;;;;;;;11.23;52.22;98222.77;435331;1251;95364;-40
2023/04/26 06:59:06;;;;;;;12.80;3.10;;;;;;;11.50;52.37;98225.77;435344;1251;107626;-42
2023/04/26 07:09:14;;;;;;;8.50;2.60;;;;;;;11.47;52.25;98231.61;435309;1251;95437;-41
2023/04/26 07:29:26;;;;;;;7.20;2.30;;;;;;;11.34;51.10;98237.59;435368;1251;108517;-40
2023/04/26 07:39:30;;;;;;;9.70;2.80;;;;;;;11.30;50.47;98244.30;435360;1255;95233;-39
2023/04/26 07:49:38;;;;;;;9.80;3.30;;;;;;;10.87;49.74;98253.50;435318;1254;96273;-40
2023/04/26 08:09:49;;;;;;;8.70;2.00;;;;;;;10.96;49.25;98262.58;435277;1256;108888;-39
2023/04/26 08:19:53;;;;;;;7.80;1.70;;;;;;;10.88;48.05;98271.88;437628;1255;96712;-39
2023/04/26 08:30:10;;;;;;;8.00;2.50;;;;;;;10.78;47.34;98270.91;435349;1256;96098;-41
2023/04/26 08:40:14;;;;;;;8.50;2.30;;;;;;;10.62;48.06;98285.02;435285;1251;96026;-41
2023/04/26 08:50:18;;;;;;;5.00;2.30;;;;;;;10.09;47.77;98292.73;437308;1254;96142;-39
2023/04/26 09:00:23;;;;;;;4.40;2.10;;;;;;;10.45;48.94;98286.34;435319;1251;107780;-41
2023/04/26 09:10:27;;;;;;;16.20;3.60;;;;;;;10.77;47.59;98285.59;435328;1255;96957;-40
2023/04/26 09:20:31;;;;;;;4.90;1.90;;;;;;;10.08;47.02;98292.35;435349;1256;96524;-40
2023/04/26 09:30:38;;;;;;;13.50;2.80;;;;;;;9.61;47.54;98297.74;435265;1255;108218;-42
2023/04/26 09:40:43;;;;;;;3.60;1.50;;;;;;;9.15;48.34;98299.46;435354;1251;96114;-41
2023/04/26 09:50:48;;;;;;;3.40;1.20;;;;;;;8.81;49.52;98301.61;435388;1254;108927;-41
2023/04/26 10:00:57;;;;;;;7.00;1.40;;;;;;;9.73;48.51;98292.09;435309;1251;109131;-41
2023/04/26 10:11:03;;;;;;;9.20;1.90;;;;;;;10.49;46.96;98290.17;435489;1251;98335;-41
2023/04/26 10:21:09;;;;;;;5.70;1.20;;;;;;;9.95;45.94;98308.52;435371;1250;110224;-39
2023/04/26 10:31:13;;;;;;;7.10;1.80;;;;;;;9.98;47.41;98294.69;435294;1256;107857;-39
2023/04/26 10:41:27;;;;;;;6.80;1.30;;;;;;;10.92;45.42;98285.15;435355;1251;97467;-41
2023/04/26 10:51:31;;;;;;;7.00;1.20;;;;;;;10.48;44.04;98294.98;435304;1256;111066;-41
2023/04/26 11:01:35;;;;;;;3.40;1.10;;;;;;;10.54;44.03;98297.46;435443;1251;97896;-41
2023/04/26 11:11:48;;;;;;;12.40;1.50;;;;;;;10.63;44.21;98291.73;435324;1256;97518;-40
2023/04/26 11:21:52;;;;;;;7.30;2.40;;;;;;;10.66;43.86;98297.45;435333;1250;110539;-40
2023/04/26 11:32:02;;;;;;;6.80;0.80;;;;;;;10.40;43.52;98301.77;435290;1251;108454;-40
2023/04/26 11:42:07;;;;;;;4.50;1.50;;;;;;;10.39;42.47;98319.43;435471;1251;97925;-41
2023/04/26 11:52:10;;;;;;;5.70;1.00;;;;;;;10.64;42.66;98312.40;435433;1251;96648;-40
2023/04/26 12:02:14;;;;;;;6.70;1.40;;;;;;;10.96;42.11;98304.70;435748;1253;108115;-39
2023/04/26 12:12:19;;;;;;;4.80;1.60;;;;;;;10.37;42.32;98318.14;434452;1258;97822;-41
2023/04/26 12:22:23;;;;;;;2.80;0.90;;;;;;;9.82;42.83;98334.40;439511;1259;97506;-40
2023/04/26 12:32:28;;;;;;;9.10;2.00;;;;;;;10.00;43.01;98331.48;439985;1258;108738;-40
2023/04/26 12:42:32;;;;;;;5.70;1.90;;;;;;;9.78;43.27;98342.33;440116;1259;97870;-41
2023/04/26 12:52:35;;;;;;;3.60;1.00;;;;;;;9.73;43.68;98336.94;439511;1260;112007;-40
2023/04/26 13:02:40;;;;;;;5.00;1.30;;;;;;;10.14;42.81;98335.42;439329;1259;96722;-40
2023/04/26 13:12:44;;;;;;;12.50;2.00;;;;;;;10.53;42.08;98331.06;440039;1259;97872;-39
2023/04/26 13:22:50;;;;;;;6.00;1.70;;;;;;;9.89;41.31;98337.40;439771;1260;97891;-41
2023/04/26 13:32:55;;;;;;;8.80;3.00;;;;;;;9.50;42.13;98352.41;437808;1260;108829;-41
2023/04/26 13:43:03;;;;;;;4.80;1.90;;;;;;;9.58;42.46;98363.48;438279;1259;108017;-41
2023/04/26 13:53:07;;;;;;;6.70;2.30;;;;;;;9.82;42.88;98363.43;437338;1258;97546;-39
2023/04/26 14:03:11;;;;;;;4.70;1.50;;;;;;;9.85;42.72;98373.28;439998;1259;97251;-39
2023/04/26 14:13:15;;;;;;;9.20;1.80;;;;;;;9.66;43.03;98378.60;439858;1258;109377;-41
2023/04/26 14:23:19;;;;;;;3.00;1.80;;;;;;;9.56;44.02;98395.42;439193;1260;97337;-41
2023/04/26 14:33:23;;;;;;;3.10;1.20;;;;;;;9.14;45.07;98402.48;438227;1267;109090;-40
2023/04/26 14:43:28;;;;;;;5.70;1.80;;;;;;;9.52;44.85;98397.60;434377;1259;97887;-41
2023/04/26 14:53:32;;;;;;;9.80;2.20;;;;;;;9.61;44.48;98392.47;434327;1254;96648;-41
2023/04/26 15:03:36;;;;;;;27.10;3.90;;;;;;;9.29;44.40;98406.38;434357;1259;109959;-40
2023/04/26 15:13:40;;;;;;;8.40;2.30;;;;;;;8.87;45.46;98411.64;434388;1267;96668;-41
2023/04/26 15:23:43;;;;;;;9.40;3.60;;;;;;;8.90;45.92;98424.58;434270;1260;97937;-39
2023/04/26 15:33:47;;;;;;;6.10;2.20;;;;;;;8.92;45.71;98434.98;434326;1267;97875;-41
2023/04/26 15:53:57;;;;;;;4.90;1.60;;;;;;;8.55;45.90;98448.98;434368;1260;97465;-40
2023/04/26 16:04:00;;;;;;;6.50;2.80;;;;;;;8.68;46.30;98442.88;434319;1261;96641;-41
2023/04/26 16:14:05;;;;;;;5.00;2.50;;;;;;;8.74;46.42;98440.90;434216;1254;108185;-40
2023/04/26 16:24:10;;;;;;;12.20;6.80;;;;;;;8.49;46.69;98442.83;434423;1260;96677;-41
2023/04/26 16:34:14;;;;;;;11.30;3.40;;;;;;;8.46;47.00;98444.88;434265;1267;96718;-40
2023/04/26 16:44:17;;;;;;;11.10;5.60;;;;;;;8.36;47.33;98453.95;434298;1260;98168;-40
2023/04/26 16:54:20;;;;;;;8.30;3.30;;;;;;;8.31;47.40;98458.61;434350;1259;107302;-39
2023/04/26 17:14:29;;;;;;;10.20;5.00;;;;;;;8.07;47.41;98471.23;434317;1267;97029;-40
2023/04/26 17:24:33;;;;;;;13.10;5.20;;;;;;;7.94;48.00;98478.03;433917;1260;509265;-40
2023/04/26 17:44:40;;;;;;;15.30;8.20;;;;;;;7.75;48.79;98492.77;434359;1254;97879;-42
2023/04/26 17:54:43;;;;;;;15.20;5.70;;;;;;;7.57;48.90;98510.80;434333;1261;107431;-40
2023/04/26 18:04:47;;;;;;;15.80;6.60;;;;;;;7.25;49.10;98524.44;434265;1259;97737;-41
2023/04/26 18:14:52;;;;;;;14.60;4.80;;;;;;;6.95;49.46;98532.45;434322;1260;97871;-41
2023/04/26 18:24:56;;;;;;;21.30;10.50;;;;;;;6.72;49.91;98541.08;434308;1254;107824;-40
2023/04/26 18:34:59;;;;;;;17.30;7.00;;;;;;;6.53;50.26;98549.20;434233;1260;97896;-39
2023/04/26 18:45:04;;;;;;;24.60;12.20;;;;;;;6.42;50.83;98556.70;434340;1254;97460;-40
2023/04/26 18:55:08;;;;;;;43.40;17.60;;;;;;;6.22;51.10;98566.33;434399;1260;109375;-40
2023/04/26 19:05:12;;;;;;;55.10;21.80;;;;;;;5.98;51.55;98576.52;434341;1260;97887;-41
2023/04/26 19:35:23;;;;;;;40.90;19.90;;;;;;;5.43;52.89;98589.95;434354;1260;97862;-40
2023/04/26 19:45:28;;;;;;;37.20;15.30;;;;;;;5.24;53.30;98595.98;434286;1260;97870;-40
2023/04/26 19:55:32;;;;;;;30.00;12.90;;;;;;;4.98;53.53;98599.13;434336;1258;109369;-40
2023/04/26 20:05:36;;;;;;;24.80;10.80;;;;;;;4.78;53.85;98598.95;434371;1259;97476;-40
2023/04/26 20:15:40;;;;;;;22.40;8.90;;;;;;;4.61;54.30;98606.77;434423;1254;97902;-40
2023/04/26 20:25:44;;;;;;;16.40;8.30;;;;;;;4.47;54.62;98610.95;434297;1255;108460;-40
2023/04/26 20:35:47;;;;;;;22.00;9.80;;;;;;;4.36;55.08;98614.09;434306;1255;97870;-40
2023/04/26 20:45:52;;;;;;;22.40;10.70;;;;;;;4.31;55.60;98622.23;438325;1260;97931;-40
2023/04/26 20:55:57;;;;;;;25.70;9.40;;;;;;;4.20;55.74;98628.06;436534;1258;108135;-44
2023/04/26 21:06:00;;;;;;;26.30;13.70;;;;;;;4.12;56.01;98632.23;438580;1254;97880;-39
2023/04/26 21:16:05;;;;;;;15.60;5.70;;;;;;;4.15;56.51;98638.13;434276;1258;110169;-40
2023/04/26 21:26:09;;;;;;;17.90;8.80;;;;;;;4.12;56.96;98646.67;434309;1254;120718;-40
2023/04/26 21:36:13;;;;;;;17.60;8.40;;;;;;;3.99;57.35;98649.41;434301;1260;97887;-40
2023/04/26 21:46:17;;;;;;;17.80;7.50;;;;;;;3.79;57.54;98659.44;434336;1259;97874;-40
2023/04/26 21:56:22;;;;;;;20.00;7.40;;;;;;;3.57;57.86;98665.55;434199;1259;108608;-40
2023/04/26 22:06:27;;;;;;;23.40;6.70;;;;;;;3.39;58.31;98672.65;434292;1259;97762;-40
2023/04/26 22:26:34;;;;;;;14.50;7.00;;;;;;;3.13;59.04;98692.43;434271;1259;108163;-40
2023/04/26 22:36:38;;;;;;;13.00;5.10;;;;;;;3.06;59.26;98699.34;434247;1259;97906;-40
2023/04/26 22:46:42;;;;;;;11.10;4.40;;;;;;;3.15;59.73;98700.23;434366;1259;107346;-40
2023/04/26 22:56:46;;;;;;;10.50;4.70;;;;;;;3.28;59.98;98701.82;436584;1259;97475;-41
2023/04/26 23:06:50;;;;;;;17.70;5.40;;;;;;;3.27;60.17;98708.36;434518;1259;109414;-39
2023/04/26 23:16:54;;;;;;;12.10;4.70;;;;;;;3.19;60.44;98712.48;434361;1259;98002;-40
2023/04/26 23:26:58;;;;;;;10.30;5.40;;;;;;;3.07;60.56;98715.58;434357;1256;98395;-40
2023/04/26 23:37:02;;;;;;;20.80;7.10;;;;;;;2.95;60.97;98715.95;434315;1259;97890;-39
2023/04/26 23:47:11;;;;;;;11.00;5.60;;;;;;;2.81;61.01;98715.87;434348;1254;108340;-40
2023/04/26 23:57:18;;;;;;;9.20;4.40;;;;;;;2.71;61.31;98723.39;434329;1259;97823;-40
